createdAt,value
2022-12-04T00:01:32.025Z,12.50
2022-12-04T00:04:02.119Z,14.63
2022-12-04T00:06:29.851Z,13.90
2022-12-04T00:08:57.212Z,12.37
2022-12-04T00:11:26.256Z,12.63
2022-12-04T00:13:53.668Z,13.50
2022-12-04T00:16:22.597Z,11.50
2022-12-04T00:18:50.024Z,14.67
2022-12-04T00:21:18.333Z,13.10
2022-12-04T00:23:46.063Z,12.03
2022-12-04T00:26:18.100Z,12.47
2022-12-04T00:28:45.728Z,13.20
2022-12-04T00:31:15.782Z,12.43
2022-12-04T00:33:43.314Z,12.30
2022-12-04T00:36:12.182Z,14.60
2022-12-04T00:38:40.152Z,12.03
2022-12-04T00:41:11.671Z,12.60
2022-12-04T00:43:39.201Z,13.40
2022-12-04T00:46:06.824Z,12.03
2022-12-04T00:48:34.464Z,13.50
2022-12-04T00:51:05.333Z,13.60
2022-12-04T00:53:33.973Z,12.53
2022-12-04T00:56:05.364Z,12.87
2022-12-04T00:58:32.959Z,13.90
2022-12-04T01:01:07.708Z,12.73
2022-12-04T01:03:35.594Z,11.90
2022-12-04T01:06:03.422Z,12.33
2022-12-04T01:08:30.861Z,12.43
2022-12-04T01:10:58.416Z,12.17
2022-12-04T01:13:26.208Z,13.27
2022-12-04T01:15:53.688Z,13.00
2022-12-04T01:18:21.234Z,12.07
2022-12-04T01:20:49.503Z,12.30
2022-12-04T01:23:17.242Z,11.20
2022-12-04T01:25:51.831Z,12.77
2022-12-04T01:28:19.188Z,12.63
2022-12-04T01:30:46.484Z,11.60
2022-12-04T01:33:14.333Z,12.40
2022-12-04T01:35:41.708Z,12.87
2022-12-04T01:38:09.085Z,13.73
2022-12-04T01:40:36.513Z,12.20
2022-12-04T01:43:03.959Z,12.87
2022-12-04T01:45:44.116Z,12.87
2022-12-04T01:48:17.357Z,12.67
2022-12-04T01:50:45.513Z,12.03
2022-12-04T01:53:13.609Z,11.87
2022-12-04T01:55:41.322Z,11.83
2022-12-04T01:58:09.728Z,12.77
2022-12-04T02:00:37.179Z,11.90
2022-12-04T02:03:04.639Z,13.00
2022-12-04T02:05:32.162Z,12.67
2022-12-04T02:08:02.102Z,13.43
2022-12-04T02:10:36.519Z,11.60
2022-12-04T02:13:08.651Z,13.40
2022-12-04T02:15:40.002Z,12.07
2022-12-04T02:18:19.413Z,12.20
2022-12-04T02:20:55.896Z,11.53
2022-12-04T02:23:40.295Z,11.27
2022-12-04T02:26:13.856Z,12.50
2022-12-04T02:28:56.593Z,12.70
2022-12-04T02:31:28.657Z,12.30
2022-12-04T02:34:00.405Z,12.17
2022-12-04T02:36:32.482Z,12.23
2022-12-04T02:39:05.033Z,12.93
2022-12-04T02:41:38.864Z,11.67
2022-12-04T02:44:10.185Z,12.07
2022-12-04T02:46:39.358Z,12.97
2022-12-04T02:49:09.195Z,13.73
2022-12-04T02:51:38.344Z,12.90
2022-12-04T02:54:08.724Z,11.63
2022-12-04T02:56:38.467Z,12.00
2022-12-04T02:59:10.767Z,12.20
2022-12-04T03:01:40.655Z,14.07
2022-12-04T03:04:31.813Z,12.90
2022-12-04T03:07:01.733Z,12.00
2022-12-04T03:09:34.185Z,13.83
2022-12-04T03:12:23.287Z,14.33
2022-12-04T03:14:56.173Z,12.13
2022-12-04T03:17:30.141Z,12.17
2022-12-04T03:19:59.363Z,12.40
2022-12-04T03:22:27.140Z,12.47
2022-12-04T03:24:55.967Z,13.07
2022-12-04T03:27:47.311Z,11.77
2022-12-04T03:30:19.778Z,11.87
2022-12-04T03:32:50.115Z,10.40
2022-12-04T03:35:20.315Z,11.80
2022-12-04T03:37:47.623Z,12.70
2022-12-04T03:40:41.338Z,12.53
2022-12-04T03:43:17.484Z,9.97
2022-12-04T03:45:47.833Z,12.50
2022-12-04T03:48:22.946Z,12.90
2022-12-04T03:50:59.758Z,11.37
2022-12-04T03:53:46.005Z,12.73
2022-12-04T03:56:19.175Z,12.10
2022-12-04T03:58:48.760Z,10.97
2022-12-04T04:01:18.172Z,13.20
2022-12-04T04:03:52.986Z,11.97
2022-12-04T04:06:24.236Z,11.47
2022-12-04T04:08:55.384Z,11.60
2022-12-04T04:11:32.605Z,11.90
2022-12-04T04:14:22.089Z,12.30
2022-12-04T04:17:11.266Z,12.67
2022-12-04T04:19:58.588Z,11.57
2022-12-04T04:22:46.027Z,10.97
2022-12-04T04:25:17.998Z,12.90
2022-12-04T04:27:53.134Z,13.00
2022-12-04T04:38:39.897Z,11.77
2022-12-04T04:41:20.863Z,11.40
2022-12-04T04:43:48.207Z,12.47
2022-12-04T04:46:20.977Z,11.20
2022-12-04T04:48:49.913Z,10.53
2022-12-04T04:51:17.674Z,11.43
2022-12-04T04:53:49.940Z,12.87
2022-12-04T04:56:17.776Z,11.97
2022-12-04T04:58:45.254Z,11.80
2022-12-04T05:01:14.130Z,12.67
2022-12-04T05:03:41.736Z,12.53
2022-12-04T05:06:09.324Z,12.03
2022-12-04T05:08:36.841Z,11.33
2022-12-04T05:11:04.417Z,11.43
2022-12-04T05:13:32.534Z,12.67
2022-12-04T05:16:04.718Z,11.93
2022-12-04T05:18:32.801Z,13.00
2022-12-04T05:21:16.994Z,12.73
2022-12-04T05:23:44.510Z,11.93
2022-12-04T05:26:17.843Z,12.40
2022-12-04T05:28:45.214Z,10.90
2022-12-04T05:31:12.767Z,12.50
2022-12-04T05:33:40.374Z,11.70
2022-12-04T05:36:09.303Z,11.83
2022-12-04T05:38:37.232Z,12.77
2022-12-04T05:41:05.776Z,11.80
2022-12-04T05:43:33.452Z,11.30
2022-12-04T05:46:04.752Z,13.30
2022-12-04T05:48:32.779Z,12.00
2022-12-04T05:51:00.162Z,12.03
2022-12-04T05:53:27.523Z,11.00
2022-12-04T05:55:56.102Z,11.47
2022-12-04T05:58:23.440Z,12.37
2022-12-04T06:00:51.027Z,11.63
2022-12-04T06:03:18.597Z,12.93
2022-12-04T06:05:46.127Z,12.43
2022-12-04T06:08:13.886Z,11.60
2022-12-04T06:10:41.446Z,12.40
2022-12-04T06:13:09.189Z,11.37
2022-12-04T06:15:40.326Z,13.00
2022-12-04T06:18:07.940Z,12.17
2022-12-04T06:20:35.824Z,11.53
2022-12-04T06:23:03.397Z,11.77
2022-12-04T06:25:30.957Z,12.40
2022-12-04T06:27:58.352Z,13.23
2022-12-04T06:30:25.692Z,12.07
2022-12-04T06:32:53.112Z,13.10
2022-12-04T06:35:20.550Z,12.17
2022-12-04T06:37:48.257Z,11.97
2022-12-04T06:40:15.790Z,13.03
2022-12-04T06:42:43.290Z,11.83
2022-12-04T06:45:11.195Z,11.80
2022-12-04T06:47:38.612Z,13.23
2022-12-04T06:50:06.330Z,11.93
2022-12-04T06:52:34.352Z,12.57
2022-12-04T06:55:01.832Z,11.83
2022-12-04T06:57:29.320Z,13.77
2022-12-04T06:59:57.004Z,12.53
2022-12-04T07:02:25.009Z,11.87
2022-12-04T07:04:56.582Z,11.57
2022-12-04T07:07:24.133Z,12.03
2022-12-04T07:09:52.048Z,11.70
2022-12-04T07:12:19.585Z,12.63
2022-12-04T07:14:46.970Z,11.80
2022-12-04T07:17:14.523Z,12.27
2022-12-04T07:19:42.007Z,10.77
2022-12-04T07:22:09.402Z,12.53
2022-12-04T07:24:37.664Z,11.23
2022-12-04T07:27:05.434Z,13.03
2022-12-04T07:29:33.126Z,12.00
2022-12-04T07:32:00.714Z,12.00
2022-12-04T07:34:28.233Z,11.77
2022-12-04T07:36:55.623Z,11.80
2022-12-04T07:39:23.119Z,12.03
2022-12-04T07:41:50.468Z,12.90
2022-12-04T07:44:18.699Z,12.67
2022-12-04T07:46:46.091Z,11.97
2022-12-04T07:49:13.741Z,11.60
2022-12-04T07:51:41.167Z,12.70
2022-12-04T07:54:09.419Z,12.60
2022-12-04T07:56:36.844Z,12.73
2022-12-04T07:59:04.727Z,11.80
2022-12-04T08:01:32.732Z,11.80
2022-12-04T08:04:01.465Z,11.63
2022-12-04T08:06:30.110Z,10.73
2022-12-04T08:08:57.615Z,12.53
2022-12-04T08:11:26.054Z,12.47
2022-12-04T08:13:57.515Z,11.30
2022-12-04T08:16:25.592Z,11.97
2022-12-04T08:18:53.983Z,12.80
2022-12-04T08:21:22.397Z,12.00
2022-12-04T08:23:53.507Z,13.40
2022-12-04T08:26:21.864Z,13.17
2022-12-04T08:28:49.583Z,12.30
2022-12-04T08:31:18.547Z,13.37
2022-12-04T08:33:46.427Z,15.03
2022-12-04T08:36:17.178Z,10.90
2022-12-04T08:38:44.635Z,13.33
2022-12-04T08:41:13.970Z,11.17
2022-12-04T08:43:41.961Z,12.13
2022-12-04T08:46:11.367Z,13.10
2022-12-04T08:48:39.256Z,12.23
2022-12-04T08:51:08.320Z,13.03
2022-12-04T08:53:36.649Z,12.80
2022-12-04T08:56:04.535Z,13.17
2022-12-04T08:58:32.379Z,13.30
2022-12-04T09:01:11.126Z,13.03
2022-12-04T09:03:39.090Z,12.27
2022-12-04T09:06:07.292Z,12.17
2022-12-04T09:08:35.354Z,12.33
2022-12-04T09:11:06.770Z,12.50
2022-12-04T09:13:34.697Z,12.00
2022-12-04T09:16:05.684Z,12.63
2022-12-04T09:18:33.301Z,12.73
2022-12-04T09:21:01.547Z,13.37
2022-12-04T09:23:29.421Z,13.20
2022-12-04T09:25:56.922Z,12.67
2022-12-04T09:28:24.413Z,13.27
2022-12-04T09:31:02.069Z,11.67
2022-12-04T09:33:30.712Z,11.80
2022-12-04T09:36:01.986Z,15.67
2022-12-04T09:38:30.563Z,22.97
2022-12-04T09:40:58.068Z,15.50
2022-12-04T09:43:30.548Z,13.23
2022-12-04T09:46:02.406Z,12.43
2022-12-04T09:48:33.671Z,13.20
2022-12-04T09:51:02.628Z,14.50
2022-12-04T09:53:34.774Z,12.90
2022-12-04T09:56:04.964Z,13.43
2022-12-04T09:58:38.497Z,13.63
2022-12-04T10:01:06.783Z,13.80
2022-12-04T10:03:34.756Z,13.73
2022-12-04T10:06:02.227Z,14.50
2022-12-04T10:08:31.906Z,14.00
2022-12-04T10:10:59.679Z,14.60
2022-12-04T10:13:27.015Z,14.20
2022-12-04T10:15:59.472Z,12.47
2022-12-04T10:18:42.116Z,12.47
2022-12-04T10:21:18.549Z,15.13
2022-12-04T10:23:52.072Z,13.40
2022-12-04T10:26:21.638Z,14.03
2022-12-04T10:28:55.219Z,13.63
2022-12-04T10:31:24.011Z,13.87
2022-12-04T10:33:57.005Z,13.40
2022-12-04T10:36:25.688Z,13.97
2022-12-04T10:38:53.068Z,14.07
2022-12-04T10:41:29.996Z,13.77
2022-12-04T10:43:57.541Z,13.50
2022-12-04T10:46:26.439Z,14.17
2022-12-04T10:48:57.128Z,13.97
2022-12-04T10:51:24.540Z,15.27
2022-12-04T10:53:52.646Z,13.93
2022-12-04T10:56:21.585Z,13.57
2022-12-04T10:59:05.206Z,18.67
2022-12-04T11:01:36.383Z,16.07
2022-12-04T11:04:06.643Z,15.20
2022-12-04T11:06:35.513Z,14.90
2022-12-04T11:09:04.543Z,14.33
2022-12-04T11:11:35.708Z,14.57
2022-12-04T11:14:03.082Z,15.60
2022-12-04T11:16:33.908Z,15.73
2022-12-04T11:19:01.588Z,14.40
2022-12-04T11:21:30.463Z,16.53
2022-12-04T11:23:58.751Z,16.13
2022-12-04T11:26:30.889Z,14.40
2022-12-04T11:29:01.463Z,18.03
2022-12-04T11:31:29.729Z,17.07
2022-12-04T11:33:59.300Z,15.63
2022-12-04T11:36:37.134Z,15.30
2022-12-04T11:39:24.822Z,14.63
2022-12-04T11:42:06.458Z,16.40
2022-12-04T11:44:35.253Z,14.30
2022-12-04T11:47:03.794Z,14.87
2022-12-04T11:49:32.263Z,15.60
2022-12-04T11:52:13.063Z,15.27
2022-12-04T11:54:52.731Z,15.87
2022-12-04T11:57:23.255Z,14.50
2022-12-04T12:00:12.172Z,16.30
2022-12-04T12:02:49.171Z,17.03
2022-12-04T12:05:37.132Z,16.70
2022-12-04T12:08:07.616Z,15.70
2022-12-04T12:10:49.117Z,13.83
2022-12-04T12:13:19.394Z,14.07
2022-12-04T12:15:59.058Z,14.17
2022-12-04T12:18:45.202Z,15.23
2022-12-04T12:21:12.638Z,15.43
2022-12-04T12:24:03.048Z,13.80
2022-12-04T12:26:46.163Z,14.63
2022-12-04T12:29:19.802Z,14.87
2022-12-04T12:31:47.627Z,16.20
2022-12-04T12:34:33.857Z,16.37
2022-12-04T12:37:03.677Z,15.67
2022-12-04T12:39:36.614Z,15.67
2022-12-04T12:42:04.054Z,17.40
2022-12-04T12:44:36.153Z,15.63
2022-12-04T12:47:13.857Z,16.97
2022-12-04T12:49:47.189Z,17.40
2022-12-04T12:52:17.742Z,16.50
2022-12-04T12:54:48.801Z,16.83
2022-12-04T12:57:19.438Z,15.57
2022-12-04T12:59:48.718Z,15.60
2022-12-04T13:02:22.428Z,17.23
2022-12-04T13:04:53.135Z,16.10
2022-12-04T13:07:51.051Z,18.03
2022-12-04T13:10:27.474Z,16.63
2022-12-04T13:12:54.880Z,16.53
2022-12-04T13:15:25.351Z,18.30
2022-12-04T13:17:55.639Z,17.97
2022-12-04T13:20:25.790Z,16.17
2022-12-04T13:23:02.839Z,18.07
2022-12-04T13:25:45.647Z,18.43
2022-12-04T13:28:22.675Z,17.77
2022-12-04T13:30:57.580Z,19.20
2022-12-04T13:33:47.981Z,18.90
2022-12-04T13:36:36.454Z,21.63
2022-12-04T13:39:25.730Z,19.17
2022-12-04T13:42:00.697Z,16.20
2022-12-04T13:44:28.795Z,17.83
2022-12-04T13:47:01.080Z,20.53
2022-12-04T13:49:30.355Z,17.77
2022-12-04T13:51:59.149Z,18.00
2022-12-04T13:54:28.448Z,19.00
2022-12-04T13:56:57.666Z,19.80
2022-12-04T13:59:28.283Z,19.57
2022-12-04T14:01:57.127Z,21.07
2022-12-04T14:04:25.655Z,18.33
2022-12-04T14:06:53.627Z,19.00
2022-12-04T14:09:23.488Z,17.67
2022-12-04T14:11:53.591Z,19.03
2022-12-04T14:14:27.548Z,17.80
2022-12-04T14:16:56.408Z,20.13
2022-12-04T14:19:37.499Z,19.40
2022-12-04T14:22:04.989Z,18.63
2022-12-04T14:24:35.187Z,19.10
2022-12-04T14:27:11.789Z,18.37
2022-12-04T14:29:48.425Z,17.30
2022-12-04T14:32:22.927Z,16.97
2022-12-04T14:34:50.488Z,17.13
2022-12-04T14:37:27.935Z,18.23
2022-12-04T14:39:56.468Z,18.97
2022-12-04T14:42:26.591Z,20.13
2022-12-04T14:44:56.579Z,18.23
2022-12-04T14:47:24.170Z,19.83
2022-12-04T14:50:10.452Z,17.93
2022-12-04T14:52:50.963Z,16.67
2022-12-04T14:55:25.881Z,17.60
2022-12-04T14:57:58.709Z,18.40
2022-12-04T15:00:26.273Z,17.47
2022-12-04T15:02:55.765Z,18.20
2022-12-04T15:05:27.921Z,18.80
2022-12-04T15:07:59.916Z,18.03
2022-12-04T15:10:47.201Z,17.27
2022-12-04T15:13:25.382Z,19.13
2022-12-04T15:15:52.967Z,17.73
2022-12-04T15:18:20.367Z,18.90
2022-12-04T15:20:53.947Z,21.20
2022-12-04T15:23:32.040Z,21.70
2022-12-04T15:26:01.486Z,19.63
2022-12-04T15:28:40.848Z,22.63
2022-12-04T15:31:11.540Z,20.07
2022-12-04T15:33:39.816Z,21.07
2022-12-04T15:36:13.517Z,19.03
2022-12-04T15:38:41.517Z,19.00
2022-12-04T15:41:25.639Z,19.60
2022-12-04T15:43:53.000Z,19.60
2022-12-04T15:46:24.954Z,19.20
2022-12-04T15:48:52.481Z,18.57
2022-12-04T15:51:21.603Z,18.97
2022-12-04T15:53:49.176Z,18.43
2022-12-04T15:56:21.093Z,19.60
2022-12-04T15:58:57.812Z,19.50
2022-12-04T16:01:25.560Z,20.30
2022-12-04T16:03:54.132Z,20.27
2022-12-04T16:06:29.447Z,22.43
2022-12-04T16:09:15.556Z,18.63
2022-12-04T16:11:44.018Z,20.57
2022-12-04T16:14:17.461Z,20.33
2022-12-04T16:16:49.738Z,22.83
2022-12-04T16:19:33.790Z,18.33
2022-12-04T16:22:05.615Z,24.43
2022-12-04T16:24:36.052Z,19.37
2022-12-04T16:27:15.871Z,22.20
2022-12-04T16:29:43.327Z,20.60
2022-12-04T16:32:15.568Z,22.80
2022-12-04T16:34:45.435Z,21.80
2022-12-04T16:37:17.618Z,19.80
2022-12-04T16:39:45.435Z,20.97
2022-12-04T16:42:18.113Z,21.07
2022-12-04T16:44:45.755Z,20.40
2022-12-04T16:47:13.740Z,20.97
2022-12-04T16:49:41.899Z,22.87
2022-12-04T16:52:10.696Z,21.07
2022-12-04T16:54:38.546Z,22.63
2022-12-04T16:57:06.270Z,21.73
2022-12-04T16:59:33.753Z,21.60
2022-12-04T17:02:01.914Z,22.87
2022-12-04T17:04:29.619Z,22.90
2022-12-04T17:06:57.099Z,21.03
2022-12-04T17:09:24.513Z,19.97
2022-12-04T17:11:51.917Z,23.23
2022-12-04T17:14:19.645Z,24.10
2022-12-04T17:16:47.469Z,22.23
2022-12-04T17:19:15.315Z,22.77
2022-12-04T17:21:42.945Z,23.93
2022-12-04T17:24:10.473Z,24.60
2022-12-04T17:26:37.961Z,25.00
2022-12-04T17:29:05.428Z,25.83
2022-12-04T17:31:32.907Z,23.50
2022-12-04T17:34:00.498Z,23.30
2022-12-04T17:36:27.944Z,23.67
2022-12-04T17:38:56.261Z,23.10
2022-12-04T17:41:24.022Z,23.77
2022-12-04T17:43:51.745Z,24.30
2022-12-04T17:46:21.724Z,24.70
2022-12-04T17:48:49.913Z,24.03
2022-12-04T17:51:18.969Z,27.23
2022-12-04T17:53:46.754Z,24.77
2022-12-04T17:56:18.366Z,24.37
2022-12-04T17:58:47.729Z,22.10
2022-12-04T18:01:19.841Z,28.63
2022-12-04T18:03:51.609Z,24.00
2022-12-04T18:06:20.739Z,26.07
2022-12-04T18:08:50.230Z,26.83
2022-12-04T18:11:20.847Z,29.73
2022-12-04T18:13:55.499Z,25.77
2022-12-04T18:16:23.103Z,25.20
2022-12-04T18:18:50.878Z,25.50
2022-12-04T18:21:21.081Z,25.10
2022-12-04T18:23:48.647Z,27.67
2022-12-04T18:26:17.712Z,26.30
2022-12-04T18:28:45.300Z,26.70
2022-12-04T18:31:13.153Z,26.43
2022-12-04T18:33:41.563Z,24.37
2022-12-04T18:36:11.908Z,24.10
2022-12-04T18:38:39.485Z,29.63
2022-12-04T18:41:07.910Z,27.13
2022-12-04T18:43:39.348Z,26.13
2022-12-04T18:46:08.357Z,28.03
2022-12-04T18:48:36.789Z,26.53
2022-12-04T18:51:16.804Z,24.87
2022-12-04T18:53:44.818Z,23.03
2022-12-04T18:56:12.427Z,22.70
2022-12-04T18:58:40.056Z,24.37
2022-12-04T19:01:08.787Z,26.00
2022-12-04T19:03:36.599Z,26.37
2022-12-04T19:06:04.287Z,23.57
2022-12-04T19:08:34.355Z,27.10
2022-12-04T19:11:11.844Z,27.60
2022-12-04T19:13:39.738Z,26.40
2022-12-04T19:16:12.334Z,27.13
2022-12-04T19:18:39.999Z,28.37
2022-12-04T19:21:08.254Z,27.73
2022-12-04T19:23:35.919Z,25.03
2022-12-04T19:26:03.842Z,26.03
2022-12-04T19:28:31.388Z,27.97
2022-12-04T19:30:58.740Z,25.07
2022-12-04T19:33:26.225Z,25.53
2022-12-04T19:36:01.141Z,25.17
2022-12-04T19:38:29.395Z,26.10
2022-12-04T19:41:04.390Z,27.37
2022-12-04T19:43:31.866Z,25.33
2022-12-04T19:45:59.342Z,25.23
2022-12-04T19:48:27.467Z,23.73
2022-12-04T19:50:55.189Z,24.87
2022-12-04T19:53:22.690Z,23.10
2022-12-04T19:55:50.212Z,26.77
2022-12-04T19:58:17.632Z,23.97
2022-12-04T20:00:48.456Z,25.00
2022-12-04T20:03:16.085Z,26.33
2022-12-04T20:05:43.507Z,26.67
2022-12-04T20:10:37.328Z,26.27
2022-12-04T20:13:06.193Z,25.40
2022-12-04T20:15:37.066Z,26.20
2022-12-04T20:18:05.016Z,25.47
2022-12-04T20:20:32.817Z,25.40
2022-12-04T20:23:00.224Z,22.60
2022-12-04T20:25:27.642Z,24.33
2022-12-04T20:27:55.473Z,23.23
2022-12-04T20:30:22.979Z,22.63
2022-12-04T20:32:50.395Z,23.10
2022-12-04T20:35:17.945Z,24.17
2022-12-04T20:37:45.458Z,24.80
2022-12-04T20:40:13.911Z,27.37
2022-12-04T20:42:43.823Z,23.97
2022-12-04T20:45:11.949Z,26.90
2022-12-04T20:47:39.616Z,25.00
2022-12-04T20:50:07.817Z,23.73
2022-12-04T20:52:35.225Z,24.00
2022-12-04T20:55:03.073Z,26.10
2022-12-04T20:57:32.960Z,25.87
2022-12-04T21:00:00.395Z,26.33
2022-12-04T21:02:28.121Z,24.10
2022-12-04T21:04:55.538Z,24.43
2022-12-04T21:07:23.038Z,25.80
2022-12-04T21:09:50.454Z,24.50
2022-12-04T21:12:41.476Z,25.50
2022-12-04T21:15:29.332Z,25.93
2022-12-04T21:17:56.843Z,23.30
2022-12-04T21:20:24.470Z,24.93
2022-12-04T21:22:51.826Z,24.67
2022-12-04T21:25:19.521Z,26.30
2022-12-04T21:27:46.956Z,24.20
2022-12-04T21:30:14.628Z,24.20
2022-12-04T21:32:42.070Z,23.53
2022-12-04T21:35:09.664Z,23.83
2022-12-04T21:37:37.264Z,23.60
2022-12-04T21:40:04.888Z,24.93
2022-12-04T21:42:32.838Z,23.67
2022-12-04T21:45:01.025Z,23.07
2022-12-04T21:47:29.322Z,25.87
2022-12-04T21:49:56.984Z,24.47
2022-12-04T21:52:24.782Z,26.60
2022-12-04T21:54:53.088Z,25.83
2022-12-04T21:57:21.036Z,26.07
2022-12-04T21:59:48.462Z,27.80
2022-12-04T22:02:16.445Z,30.17
2022-12-04T22:04:43.867Z,27.57
2022-12-04T22:07:11.891Z,28.20
2022-12-04T22:09:40.290Z,25.67
2022-12-04T22:12:26.852Z,26.37
2022-12-04T22:14:56.480Z,27.67
2022-12-04T22:17:26.577Z,26.53
2022-12-04T22:19:55.522Z,26.47
2022-12-04T22:22:24.121Z,23.37
2022-12-04T22:24:51.505Z,24.67
2022-12-04T22:27:18.946Z,28.70
2022-12-04T22:29:50.912Z,25.80
2022-12-04T22:32:18.942Z,25.53
2022-12-04T22:34:48.714Z,25.40
2022-12-04T22:37:16.291Z,25.60
2022-12-04T22:39:43.730Z,25.77
2022-12-04T22:42:11.104Z,24.17
2022-12-04T22:44:38.492Z,25.83
2022-12-04T22:47:05.947Z,26.77
2022-12-04T22:49:33.367Z,25.03
2022-12-04T22:52:00.864Z,23.83
2022-12-04T22:54:28.189Z,24.47
2022-12-04T22:56:55.565Z,26.03
2022-12-04T22:59:22.931Z,24.10
2022-12-04T23:01:50.394Z,23.17
2022-12-04T23:04:17.738Z,26.13
2022-12-04T23:06:45.111Z,24.40
2022-12-04T23:09:13.875Z,25.07
2022-12-04T23:11:41.630Z,23.37
2022-12-04T23:14:10.087Z,24.80
2022-12-04T23:16:38.164Z,23.70
2022-12-04T23:19:06.846Z,26.10
2022-12-04T23:21:34.489Z,23.67
2022-12-04T23:24:01.882Z,23.07
2022-12-04T23:26:36.648Z,22.53
2022-12-04T23:29:13.507Z,23.67
2022-12-04T23:31:51.341Z,22.93
2022-12-04T23:34:18.886Z,23.07
2022-12-04T23:36:46.275Z,25.07
2022-12-04T23:39:13.902Z,25.77
2022-12-04T23:41:41.359Z,23.03
2022-12-04T23:44:08.716Z,25.53
2022-12-04T23:46:36.248Z,25.67
2022-12-04T23:49:03.847Z,21.87
2022-12-04T23:51:31.360Z,26.27
2022-12-04T23:53:59.275Z,25.13
2022-12-04T23:56:27.832Z,24.03
2022-12-04T23:58:56.360Z,23.33
